Time;durP1;ratioP1;P1;durP2;ratioP2;P2;SDS_P1;SDS_P2;PMS_P1;PMS_P2;Temp;Humidity;BMP_temperature;BMP_pressure;BME280_temperature;BME280_humidity;BME280_pressure;Samples;Min_cycle;Max_cycle;Signal;HPM_P1;HPM_P2
2021/09/13 00:00:43;;;;;;;7.50;6.20;;;16.70;98.10;;;;;;5098928;28;20182;-89
2021/09/13 00:03:09;;;;;;;9.13;6.77;;;16.80;97.70;;;;;;5084339;28;20168;-89
2021/09/13 00:05:38;;;;;;;7.53;6.70;;;16.70;97.70;;;;;;5083543;28;20255;-91
2021/09/13 00:08:10;;;;;;;8.37;6.40;;;16.70;97.80;;;;;;5079825;28;20699;-93
2021/09/13 00:10:36;;;;;;;10.63;6.83;;;16.60;98.20;;;;;;5079490;28;20255;-90
2021/09/13 00:13:02;;;;;;;11.67;7.50;;;16.60;98.30;;;;;;5079298;28;20172;-91
2021/09/13 00:15:28;;;;;;;8.53;6.93;;;16.70;98.70;;;;;;5079675;28;20642;-93
2021/09/13 00:17:54;;;;;;;8.63;6.87;;;16.60;98.40;;;;;;5079597;28;20325;-92
2021/09/13 00:20:19;;;;;;;8.63;7.03;;;16.70;98.50;;;;;;5078925;28;20200;-92
2021/09/13 00:22:45;;;;;;;10.13;6.67;;;16.60;98.00;;;;;;5084205;28;20184;-89
2021/09/13 00:25:11;;;;;;;8.10;7.23;;;16.70;98.40;;;;;;5087041;28;20279;-92
2021/09/13 00:27:36;;;;;;;7.83;6.57;;;16.60;98.50;;;;;;5088206;28;20235;-90
2021/09/13 00:30:04;;;;;;;9.63;7.47;;;16.80;98.50;;;;;;5087113;28;20237;-90
2021/09/13 00:32:29;;;;;;;7.93;6.17;;;16.80;97.70;;;;;;5083293;28;20169;-91
2021/09/13 00:34:57;;;;;;;7.80;6.07;;;16.80;97.30;;;;;;5088210;28;20175;-90
2021/09/13 00:37:23;;;;;;;7.50;6.27;;;16.80;96.90;;;;;;5089594;28;20199;-89
2021/09/13 00:39:49;;;;;;;8.83;6.77;;;16.90;96.00;;;;;;5087904;28;20177;-88
2021/09/13 00:42:15;;;;;;;8.17;6.43;;;16.90;95.70;;;;;;5089737;28;20182;-88
2021/09/13 00:44:42;;;;;;;8.87;5.80;;;16.80;95.40;;;;;;5097247;28;20311;-90
2021/09/13 00:47:07;;;;;;;7.50;6.27;;;16.70;95.80;;;;;;5096673;28;20203;-89
2021/09/13 00:49:34;;;;;;;7.73;5.83;;;16.70;95.60;;;;;;5097900;28;20173;-90
2021/09/13 00:52:00;;;;;;;8.80;6.37;;;16.80;96.00;;;;;;5096813;28;20184;-90
2021/09/13 00:54:26;;;;;;;7.13;6.27;;;16.80;96.00;;;;;;5091528;28;20181;-90
2021/09/13 00:56:52;;;;;;;8.77;6.00;;;16.80;95.80;;;;;;5084039;28;20649;-91
2021/09/13 00:59:20;;;;;;;8.13;5.50;;;16.60;95.90;;;;;;5077590;28;20188;-90
2021/09/13 01:01:46;;;;;;;7.10;6.33;;;16.70;95.80;;;;;;5076885;28;20184;-89
2021/09/13 01:04:12;;;;;;;8.57;6.30;;;16.70;96.30;;;;;;5075606;28;20260;-90
2021/09/13 01:06:39;;;;;;;9.53;6.17;;;16.60;95.90;;;;;;5075912;28;20224;-92
2021/09/13 01:09:04;;;;;;;7.17;5.60;;;16.60;96.30;;;;;;5075394;28;20172;-89
2021/09/13 01:11:30;;;;;;;8.40;6.53;;;16.60;96.50;;;;;;5075513;28;20177;-90
2021/09/13 01:13:56;;;;;;;8.73;6.47;;;16.40;98.10;;;;;;5075528;28;20225;-88
2021/09/13 01:16:22;;;;;;;8.37;6.10;;;16.50;98.10;;;;;;5075491;28;20172;-91
2021/09/13 01:18:47;;;;;;;11.00;7.10;;;16.40;97.60;;;;;;5076427;28;20199;-91
2021/09/13 01:21:13;;;;;;;9.80;6.50;;;16.30;98.40;;;;;;5075057;28;20172;-88
2021/09/13 01:23:40;;;;;;;7.10;5.67;;;16.30;98.90;;;;;;5076749;28;20173;-90
2021/09/13 01:26:06;;;;;;;7.80;6.10;;;16.40;99.20;;;;;;5076895;28;20687;-88
2021/09/13 01:28:33;;;;;;;9.23;6.47;;;16.40;98.80;;;;;;5077615;28;20208;-91
2021/09/13 01:30:59;;;;;;;8.03;6.20;;;16.40;98.50;;;;;;5076284;28;20176;-89
2021/09/13 01:33:26;;;;;;;7.27;6.10;;;16.30;98.40;;;;;;5077830;28;20202;-89
2021/09/13 01:35:52;;;;;;;7.03;6.03;;;16.30;98.70;;;;;;5077705;28;20271;-90
2021/09/13 01:38:21;;;;;;;8.40;6.90;;;16.40;99.00;;;;;;5060056;28;20173;-89
2021/09/13 01:40:48;;;;;;;7.63;6.37;;;16.20;99.20;;;;;;5075567;28;20181;-90
2021/09/13 01:43:14;;;;;;;7.43;5.90;;;16.30;99.20;;;;;;5076278;28;20267;-91
2021/09/13 01:45:40;;;;;;;9.40;6.87;;;16.30;98.90;;;;;;5076460;28;20243;-91
2021/09/13 01:48:06;;;;;;;8.37;6.07;;;16.20;98.80;;;;;;5076746;28;20711;-89
2021/09/13 01:50:32;;;;;;;7.40;6.30;;;16.20;99.10;;;;;;5077570;28;20182;-89
2021/09/13 01:52:58;;;;;;;7.67;6.83;;;16.10;99.30;;;;;;5090167;28;20196;-91
2021/09/13 01:55:24;;;;;;;8.17;5.97;;;16.10;99.70;;;;;;5091134;28;20183;-90
2021/09/13 01:57:50;;;;;;;8.47;6.20;;;16.10;99.80;;;;;;5088157;28;20225;-91
2021/09/13 02:00:16;;;;;;;8.07;5.90;;;16.20;99.50;;;;;;5082041;28;20177;-91
2021/09/13 02:02:42;;;;;;;7.07;6.33;;;16.20;99.50;;;;;;5078734;28;20657;-92
2021/09/13 02:05:08;;;;;;;8.23;6.53;;;16.20;99.70;;;;;;5076694;28;20321;-91
2021/09/13 02:07:35;;;;;;;9.73;5.90;;;16.20;99.20;;;;;;5076387;28;20173;-90
2021/09/13 02:10:01;;;;;;;8.73;5.73;;;16.30;99.30;;;;;;5075957;28;20169;-91
2021/09/13 02:12:27;;;;;;;9.17;5.70;;;16.20;99.30;;;;;;5076104;28;20697;-91
2021/09/13 02:14:52;;;;;;;11.80;6.27;;;16.10;99.20;;;;;;5075692;28;20172;-91
2021/09/13 02:17:18;;;;;;;9.40;6.30;;;16.10;99.70;;;;;;5077866;28;20173;-89
2021/09/13 02:19:46;;;;;;;13.37;6.50;;;16.10;99.50;;;;;;5097751;28;20164;-88
2021/09/13 02:22:12;;;;;;;10.43;6.50;;;16.10;99.50;;;;;;5097697;28;20235;-89
2021/09/13 02:24:38;;;;;;;8.47;6.47;;;16.00;99.60;;;;;;5093957;28;20224;-91
2021/09/13 02:27:13;;;;;;;7.77;6.73;;;16.00;99.90;;;;;;5075651;28;20175;-92
2021/09/13 02:29:39;;;;;;;8.57;6.63;;;16.00;99.90;;;;;;5075801;28;20178;-93
2021/09/13 02:32:05;;;;;;;8.37;7.53;;;15.90;99.90;;;;;;5075080;28;20180;-90
2021/09/13 02:34:31;;;;;;;9.13;7.20;;;15.80;99.90;;;;;;5076799;28;20222;-91
2021/09/13 02:36:57;;;;;;;10.33;7.30;;;15.60;99.90;;;;;;5080867;28;20152;-88
2021/09/13 02:39:23;;;;;;;9.67;7.30;;;15.60;99.90;;;;;;5097781;28;20188;-85
2021/09/13 02:41:48;;;;;;;10.00;7.70;;;15.70;99.90;;;;;;5097657;28;20164;-92
2021/09/13 02:44:18;;;;;;;11.77;8.50;;;15.70;99.90;;;;;;5095122;28;20580;-90
2021/09/13 02:46:47;;;;;;;9.00;8.10;;;15.60;99.90;;;;;;5076565;28;20208;-90
2021/09/13 02:49:12;;;;;;;10.40;8.43;;;15.60;99.90;;;;;;5080208;28;20226;-92
2021/09/13 02:51:38;;;;;;;11.90;9.60;;;15.50;99.90;;;;;;5087898;28;20179;-87
2021/09/13 02:54:04;;;;;;;11.43;8.93;;;15.60;99.90;;;;;;5081301;28;20190;-92
2021/09/13 02:56:33;;;;;;;10.23;9.00;;;15.50;99.90;;;;;;5081079;28;20255;-91
2021/09/13 02:58:58;;;;;;;10.20;9.10;;;15.50;99.90;;;;;;5080119;28;20616;-89
2021/09/13 03:01:24;;;;;;;11.40;10.20;;;15.60;99.90;;;;;;5076676;28;20252;-87
2021/09/13 03:03:49;;;;;;;10.80;8.43;;;15.60;99.90;;;;;;5075700;28;20187;-89
2021/09/13 03:06:15;;;;;;;10.80;9.00;;;15.60;99.90;;;;;;5084180;28;20211;-91
2021/09/13 03:08:41;;;;;;;10.23;8.63;;;15.60;99.90;;;;;;5087729;28;20187;-91
2021/09/13 03:11:08;;;;;;;11.03;8.33;;;15.60;99.90;;;;;;5085382;28;20203;-91
2021/09/13 03:13:34;;;;;;;10.60;8.40;;;15.50;99.90;;;;;;5087632;28;20168;-90
2021/09/13 03:15:59;;;;;;;12.97;8.37;;;15.50;99.90;;;;;;5087770;28;20553;-90
2021/09/13 03:18:25;;;;;;;10.67;8.60;;;15.50;99.90;;;;;;5086110;28;20180;-91
2021/09/13 03:20:51;;;;;;;10.73;8.30;;;15.60;99.90;;;;;;5093751;28;20168;-90
2021/09/13 03:23:17;;;;;;;9.27;8.20;;;15.60;99.90;;;;;;5084002;28;20175;-90
2021/09/13 03:25:43;;;;;;;11.40;8.40;;;15.60;99.90;;;;;;5082040;28;20208;-91
2021/09/13 03:28:10;;;;;;;11.80;8.27;;;15.50;99.90;;;;;;5080148;28;20269;-90
2021/09/13 03:30:35;;;;;;;12.67;8.40;;;15.50;99.90;;;;;;5078457;28;20168;-91
2021/09/13 03:33:01;;;;;;;12.33;8.93;;;15.50;99.90;;;;;;5078464;28;20217;-92
2021/09/13 03:35:27;;;;;;;11.50;9.53;;;15.50;99.90;;;;;;5080417;28;20295;-92
2021/09/13 03:37:52;;;;;;;10.00;9.00;;;15.50;99.90;;;;;;5084840;28;20188;-91
2021/09/13 03:40:20;;;;;;;13.60;8.70;;;15.40;99.90;;;;;;5098044;28;20218;-88
2021/09/13 03:42:47;;;;;;;13.43;9.87;;;15.40;99.90;;;;;;5099585;28;20248;-89
2021/09/13 03:45:14;;;;;;;11.57;10.10;;;15.40;99.90;;;;;;5100086;28;20214;-87
2021/09/13 03:47:42;;;;;;;12.30;9.80;;;15.40;99.90;;;;;;5089490;28;20163;-93
2021/09/13 03:53:30;;;;;;;13.63;10.37;;;15.30;99.90;;;;;;5092504;28;20199;-90
2021/09/13 03:55:56;;;;;;;13.90;11.17;;;15.20;99.90;;;;;;5086194;28;20168;-90
2021/09/13 03:58:22;;;;;;;12.30;11.00;;;15.30;99.90;;;;;;5089891;28;20180;-90
2021/09/13 04:00:47;;;;;;;12.40;10.97;;;15.10;99.90;;;;;;5089269;28;20166;-91
2021/09/13 04:03:17;;;;;;;15.17;11.73;;;15.30;99.90;;;;;;5092215;28;20179;-91
2021/09/13 04:05:44;;;;;;;16.63;12.07;;;15.40;99.90;;;;;;5090441;28;20296;-90
2021/09/13 04:08:19;;;;;;;17.90;12.80;;;15.40;99.90;;;;;;5082143;28;20172;-90
2021/09/13 04:13:10;;;;;;;15.23;12.53;;;15.30;99.90;;;;;;5083539;28;20255;-92
2021/09/13 04:15:36;;;;;;;15.13;13.53;;;15.20;99.90;;;;;;5084337;28;20168;-91
2021/09/13 04:18:02;;;;;;;18.47;13.27;;;15.20;99.90;;;;;;5088371;28;20270;-90
2021/09/13 04:20:28;;;;;;;18.70;13.93;;;15.20;99.90;;;;;;5088246;28;20183;-92
2021/09/13 04:22:54;;;;;;;16.43;14.10;;;15.20;99.90;;;;;;5086458;28;20225;-93
2021/09/13 04:25:21;;;;;;;19.87;14.20;;;15.20;99.90;;;;;;5079174;28;20214;-92
2021/09/13 04:27:47;;;;;;;16.70;13.23;;;15.20;99.90;;;;;;5094927;28;20188;-91
2021/09/13 04:30:16;;;;;;;17.00;13.43;;;15.20;99.90;;;;;;5097373;28;20216;-91
2021/09/13 04:32:41;;;;;;;18.73;13.27;;;15.30;99.90;;;;;;5099450;28;20164;-85
2021/09/13 04:35:07;;;;;;;17.77;13.07;;;15.20;99.90;;;;;;5099378;28;20169;-84
2021/09/13 04:37:56;;;;;;;16.37;13.67;;;15.10;99.90;;;;;;5099508;28;20228;-85
2021/09/13 04:40:25;;;;;;;16.73;13.40;;;15.20;99.90;;;;;;5099497;28;20180;-87
2021/09/13 04:42:53;;;;;;;17.40;13.30;;;15.10;99.90;;;;;;5098950;28;20180;-88
2021/09/13 04:45:18;;;;;;;15.80;12.90;;;15.10;99.90;;;;;;5094715;28;20304;-91
2021/09/13 04:47:44;;;;;;;20.97;14.40;;;15.20;99.90;;;;;;5093401;28;20178;-87
2021/09/13 04:50:16;;;;;;;18.90;14.13;;;15.10;99.90;;;;;;5087611;28;20688;-91
2021/09/13 04:52:43;;;;;;;17.13;13.57;;;15.00;99.90;;;;;;5098800;28;20184;-89
2021/09/13 04:55:09;;;;;;;17.40;14.13;;;15.10;99.90;;;;;;5098654;28;20183;-90
2021/09/13 04:57:45;;;;;;;17.97;14.33;;;15.00;99.90;;;;;;5098727;28;20223;-90
2021/09/13 05:00:17;;;;;;;15.93;14.33;;;15.00;99.90;;;;;;5099198;28;20167;-84
2021/09/13 05:02:49;;;;;;;20.33;14.07;;;14.90;99.90;;;;;;5098565;28;20194;-90
2021/09/13 05:05:49;;;;;;;15.93;13.00;;;15.10;99.90;;;;;;5094957;28;20218;-91
2021/09/13 05:08:17;;;;;;;15.40;13.03;;;14.90;99.90;;;;;;5084399;28;20182;-92
2021/09/13 05:10:45;;;;;;;18.90;13.63;;;14.90;99.90;;;;;;5082216;28;20266;-90
2021/09/13 05:13:14;;;;;;;15.87;13.90;;;14.90;99.90;;;;;;5082062;28;20188;-89
2021/09/13 05:15:39;;;;;;;18.80;14.27;;;14.90;99.90;;;;;;5085661;28;20162;-91
2021/09/13 05:18:06;;;;;;;15.03;12.70;;;15.00;99.90;;;;;;5098258;28;20188;-87
2021/09/13 05:20:32;;;;;;;17.27;13.77;;;14.90;99.90;;;;;;5096820;28;20275;-87
2021/09/13 05:23:00;;;;;;;16.70;14.23;;;15.20;99.90;;;;;;5094469;28;20170;-87
2021/09/13 05:25:25;;;;;;;17.93;13.53;;;15.00;99.90;;;;;;5086271;28;20204;-90
2021/09/13 05:27:52;;;;;;;14.53;13.07;;;15.00;99.90;;;;;;5082217;28;20620;-87
2021/09/13 05:30:18;;;;;;;18.03;13.03;;;15.00;99.90;;;;;;5064672;28;20175;-91
2021/09/13 05:32:45;;;;;;;16.17;13.77;;;15.00;99.90;;;;;;5082200;28;20187;-89
2021/09/13 05:35:11;;;;;;;17.13;13.90;;;14.80;99.90;;;;;;5078288;28;20177;-90
2021/09/13 05:37:38;;;;;;;15.73;13.57;;;15.10;99.90;;;;;;5077145;28;20233;-91
2021/09/13 05:40:06;;;;;;;15.50;13.47;;;15.10;99.90;;;;;;5081861;28;20188;-89
2021/09/13 05:42:34;;;;;;;17.87;13.80;;;15.20;99.90;;;;;;5086536;28;20238;-87
2021/09/13 05:44:59;;;;;;;16.07;13.17;;;15.20;99.90;;;;;;5081490;28;20196;-87
2021/09/13 05:47:26;;;;;;;21.20;17.03;;;15.20;99.90;;;;;;5076767;28;20195;-85
2021/09/13 05:49:53;;;;;;;17.87;15.27;;;15.30;99.90;;;;;;5076944;28;20164;-86
2021/09/13 05:52:23;;;;;;;16.30;14.37;;;15.40;99.90;;;;;;5077004;28;20199;-86
2021/09/13 05:54:48;;;;;;;22.30;14.43;;;15.20;99.90;;;;;;5076224;28;20171;-86
2021/09/13 05:57:14;;;;;;;17.80;14.00;;;15.40;99.90;;;;;;5077590;28;20176;-86
2021/09/13 05:59:41;;;;;;;18.87;13.93;;;15.30;99.90;;;;;;5074951;28;20169;-84
2021/09/13 06:02:06;;;;;;;20.83;14.57;;;15.40;99.90;;;;;;5076539;28;20219;-86
2021/09/13 06:04:33;;;;;;;18.70;14.57;;;15.40;99.90;;;;;;5075201;28;20174;-86
2021/09/13 06:06:59;;;;;;;22.43;14.60;;;15.40;99.90;;;;;;5074489;28;20636;-86
2021/09/13 06:09:25;;;;;;;17.00;14.10;;;15.60;99.90;;;;;;5074882;28;20206;-85
2021/09/13 06:11:51;;;;;;;20.60;14.77;;;15.50;99.90;;;;;;5075098;28;20166;-86
2021/09/13 06:14:22;;;;;;;17.00;13.77;;;15.70;99.90;;;;;;5075620;28;20226;-85
2021/09/13 06:16:48;;;;;;;18.70;14.43;;;15.60;99.90;;;;;;5061630;28;20184;-85
2021/09/13 06:19:13;;;;;;;17.93;14.80;;;15.60;99.90;;;;;;5089673;28;20229;-87
2021/09/13 06:21:40;;;;;;;14.97;13.33;;;15.60;99.90;;;;;;5096751;28;20198;-89
2021/09/13 06:24:06;;;;;;;16.03;11.30;;;15.60;99.90;;;;;;5096213;28;20228;-91
2021/09/13 06:26:34;;;;;;;17.47;12.57;;;15.60;99.90;;;;;;5094039;28;20211;-85
2021/09/13 06:29:02;;;;;;;18.23;12.07;;;15.60;99.90;;;;;;5094250;28;20292;-86
2021/09/13 06:31:28;;;;;;;16.67;12.80;;;15.60;99.90;;;;;;5086260;28;20183;-85
2021/09/13 06:33:57;;;;;;;15.77;12.60;;;15.60;99.90;;;;;;5088181;28;20267;-92
2021/09/13 06:36:29;;;;;;;16.63;12.63;;;15.60;99.90;;;;;;5091434;28;20178;-89
2021/09/13 06:38:56;;;;;;;14.80;12.17;;;15.70;99.90;;;;;;5091383;28;20168;-87
2021/09/13 06:41:27;;;;;;;14.30;12.20;;;15.70;99.90;;;;;;5087389;28;20184;-87
2021/09/13 06:43:56;;;;;;;14.10;12.40;;;15.80;99.90;;;;;;5077587;28;20189;-86
2021/09/13 06:46:33;;;;;;;16.73;12.63;;;15.80;99.90;;;;;;5075674;28;20196;-86
2021/09/13 06:52:37;;;;;;;16.40;13.30;;;15.80;99.90;;;;;;5055425;28;20212;-87
2021/09/13 06:55:15;;;;;;;15.63;12.07;;;15.60;99.90;;;;;;5081125;28;20218;-93
2021/09/13 06:57:59;;;;;;;17.73;12.57;;;16.00;99.90;;;;;;5079642;28;20333;-89
2021/09/13 07:00:52;;;;;;;;;;;;;;;;;;;;;
2021/09/13 07:03:46;;;;;;;14.80;11.47;;;16.00;99.90;;;;;;5092899;28;20203;-85
2021/09/13 07:06:34;;;;;;;14.80;11.77;;;16.20;99.90;;;;;;5086059;28;20307;-86
2021/09/13 07:09:01;;;;;;;13.70;11.10;;;16.10;99.90;;;;;;5086237;28;20237;-85
2021/09/13 07:11:28;;;;;;;15.93;11.33;;;16.00;99.90;;;;;;5082665;28;20174;-86
2021/09/13 07:14:07;;;;;;;14.23;11.27;;;16.30;99.90;;;;;;5082199;28;20188;-85
2021/09/13 07:17:10;;;;;;;14.03;11.97;;;16.30;99.90;;;;;;5080232;28;20184;-86
2021/09/13 07:19:51;;;;;;;14.53;11.03;;;16.50;99.90;;;;;;5079603;28;20179;-86
2021/09/13 07:22:17;;;;;;;12.80;10.93;;;16.50;99.90;;;;;;5078410;28;20266;-85
2021/09/13 07:24:44;;;;;;;12.90;10.40;;;16.70;99.90;;;;;;5079068;28;20172;-85
2021/09/13 07:27:27;;;;;;;13.70;10.10;;;16.70;99.90;;;;;;5078030;28;20219;-85
2021/09/13 07:30:05;;;;;;;13.33;10.03;;;16.70;99.90;;;;;;5079543;28;20176;-89
2021/09/13 07:32:49;;;;;;;11.57;9.50;;;16.50;99.90;;;;;;5080919;28;20224;-87
2021/09/13 07:35:54;;;;;;;10.87;9.70;;;16.70;99.90;;;;;;5079236;28;20357;-85
2021/09/13 07:38:24;;;;;;;10.47;9.27;;;16.80;99.90;;;;;;5078458;28;20555;-87
2021/09/13 07:41:18;;;;;;;;;;;;;;;;;;;;;
2021/09/13 07:43:53;;;;;;;12.17;10.50;;;16.80;99.90;;;;;;5095457;28;20207;-87
2021/09/13 07:46:38;;;;;;;11.63;9.17;;;16.90;99.90;;;;;;5088357;28;20384;-85
2021/09/13 07:49:13;;;;;;;15.07;9.83;;;16.90;99.90;;;;;;5085760;28;20176;-86
2021/09/13 07:52:00;;;;;;;11.93;9.37;;;16.90;99.90;;;;;;5084825;28;20262;-85
2021/09/13 07:54:35;;;;;;;12.60;10.07;;;17.00;99.90;;;;;;5086410;28;20176;-86
2021/09/13 07:57:01;;;;;;;14.23;9.63;;;17.00;99.80;;;;;;5085521;28;20177;-86
2021/09/13 07:59:40;;;;;;;11.67;9.47;;;17.00;99.90;;;;;;5083971;28;20180;-85
2021/09/13 08:02:13;;;;;;;10.67;9.20;;;17.00;99.90;;;;;;5092330;28;20240;-86
2021/09/13 08:04:47;;;;;;;13.57;9.53;;;17.10;99.90;;;;;;5087341;28;20183;-86
2021/09/13 08:07:19;;;;;;;13.23;9.57;;;17.30;99.80;;;;;;5067967;28;20214;-85
2021/09/13 08:10:28;;;;;;;10.67;8.07;;;17.40;99.10;;;;;;5083162;28;20726;-86
2021/09/13 08:13:12;;;;;;;12.67;8.37;;;17.50;98.50;;;;;;5060987;28;20177;-87
2021/09/13 08:15:41;;;;;;;14.57;9.60;;;17.60;98.00;;;;;;5059828;28;20660;-85
2021/09/13 08:18:26;;;;;;;11.57;9.37;;;17.40;98.00;;;;;;5043620;28;20233;-86
2021/09/13 08:24:32;;;;;;;11.50;8.50;;;17.90;97.80;;;;;;5066560;28;20625;-87
2021/09/13 08:27:19;;;;;;;14.70;8.97;;;18.10;96.40;;;;;;5062819;28;20215;-87
2021/09/13 08:33:18;;;;;;;12.17;8.80;;;18.10;95.10;;;;;;5071482;28;20195;-86
2021/09/13 08:36:10;;;;;;;11.63;9.63;;;18.20;95.70;;;;;;5069987;28;20187;-85
2021/09/13 08:39:17;;;;;;;10.47;8.97;;;18.20;94.90;;;;;;5077644;28;20261;-85
2021/09/13 08:42:15;;;;;;;12.07;9.60;;;18.10;94.40;;;;;;5074528;28;20396;-85
2021/09/13 08:45:02;;;;;;;;;;;;;;;;;;;;;
2021/09/13 08:53:53;;;;;;;14.10;8.17;;;18.30;94.60;;;;;;5055613;28;20613;-86
2021/09/13 09:00:16;;;;;;;10.83;8.43;;;18.30;93.80;;;;;;5046397;28;20232;-86
2021/09/13 09:03:33;;;;;;;13.57;8.40;;;18.30;94.20;;;;;;5077418;28;20267;-86
2021/09/13 09:10:41;;;;;;;11.67;8.53;;;18.30;93.90;;;;;;5064671;28;20233;-85
2021/09/13 09:17:14;;;;;;;;;;;;;;;;;;;;;
2021/09/13 09:20:07;;;;;;;11.73;7.97;;;18.70;93.30;;;;;;5074266;28;20223;-86
2021/09/13 09:23:15;;;;;;;11.83;8.80;;;18.50;92.70;;;;;;5096756;28;20172;-85
2021/09/13 09:26:29;;;;;;;11.30;8.70;;;18.40;93.20;;;;;;5091618;28;20291;-86
2021/09/13 09:29:38;;;;;;;14.30;8.73;;;18.50;93.30;;;;;;5096007;28;20188;-87
2021/09/13 09:32:47;;;;;;;;;;;;;;;;;;;;;
2021/09/13 09:36:20;;;;;;;10.57;8.30;;;19.00;92.30;;;;;;5094468;28;20189;-86
2021/09/13 09:46:20;;;;;;;11.60;8.33;;;19.20;90.70;;;;;;5038673;28;20201;-86
2021/09/13 09:49:17;;;;;;;13.03;8.80;;;19.10;91.30;;;;;;5028353;28;20676;-84
2021/09/13 09:52:26;;;;;;;13.73;8.70;;;19.10;91.60;;;;;;5043093;28;20627;-85
2021/09/13 09:58:59;;;;;;;13.93;9.87;;;19.30;90.10;;;;;;5049685;28;20185;-86
2021/09/13 10:02:07;;;;;;;;;;;;;;;;;;;;;
2021/09/13 10:04:59;;;;;;;11.80;8.43;;;19.40;89.00;;;;;;5069726;28;20204;-86
2021/09/13 10:07:52;;;;;;;13.43;9.37;;;19.40;87.20;;;;;;5071841;28;20188;-86
2021/09/13 10:14:20;;;;;;;11.00;8.43;;;19.80;85.90;;;;;;5064641;28;20918;-89
2021/09/13 10:17:37;;;;;;;13.00;8.27;;;20.00;83.20;;;;;;5072342;28;20182;-88
2021/09/13 10:20:36;;;;;;;9.83;6.97;;;20.20;80.00;;;;;;5067834;28;20178;-87
2021/09/13 10:27:29;;;;;;;12.57;7.13;;;19.90;80.80;;;;;;5082647;28;20229;-91
2021/09/13 10:30:34;;;;;;;8.27;6.60;;;19.90;81.40;;;;;;5091228;28;20192;-89
2021/09/13 10:33:56;;;;;;;8.50;6.60;;;19.90;80.00;;;;;;5096494;28;20218;-89
2021/09/13 10:37:08;;;;;;;10.30;7.63;;;19.90;74.80;;;;;;5092823;28;20252;-87
2021/09/13 10:40:28;;;;;;;11.13;6.70;;;20.00;79.10;;;;;;5090058;28;20177;-87
2021/09/13 10:43:21;;;;;;;11.93;8.10;;;19.90;72.30;;;;;;5091583;28;20195;-89
2021/09/13 10:46:12;;;;;;;14.00;7.27;;;19.80;77.00;;;;;;5084631;28;20269;-87
2021/09/13 10:49:28;;;;;;;11.23;6.60;;;19.80;79.00;;;;;;5086781;28;20711;-90
2021/09/13 10:52:31;;;;;;;9.90;7.20;;;19.70;75.30;;;;;;5085401;28;20176;-91
2021/09/13 10:55:18;;;;;;;8.83;6.37;;;19.90;75.60;;;;;;5086073;28;20620;-88
2021/09/13 10:58:09;;;;;;;9.10;6.37;;;19.90;75.90;;;;;;5085665;28;20204;-90
2021/09/13 11:00:40;;;;;;;10.97;6.70;;;20.10;72.80;;;;;;5084569;28;20204;-88
2021/09/13 11:03:36;;;;;;;9.13;7.00;;;20.10;69.90;;;;;;5085257;28;20168;-88
2021/09/13 11:06:12;;;;;;;10.47;8.30;;;20.00;73.60;;;;;;5084450;28;20224;-90
2021/09/13 11:09:05;;;;;;;14.13;9.17;;;20.30;73.80;;;;;;5084137;28;20635;-91
2021/09/13 11:12:07;;;;;;;10.50;8.43;;;20.30;72.10;;;;;;5083535;28;20207;-89
2021/09/13 11:14:37;;;;;;;10.27;8.00;;;20.70;67.30;;;;;;5059394;28;20200;-90
2021/09/13 11:17:12;;;;;;;13.10;7.60;;;20.70;69.20;;;;;;5082171;28;20691;-89
2021/09/13 11:19:39;;;;;;;13.60;9.70;;;20.70;68.70;;;;;;5080543;28;20178;-92
2021/09/13 11:22:07;;;;;;;11.67;8.60;;;20.70;70.10;;;;;;5063734;28;20197;-88
2021/09/13 11:24:44;;;;;;;9.43;8.10;;;20.70;67.50;;;;;;5079960;28;20179;-89
2021/09/13 11:27:50;;;;;;;13.27;8.80;;;20.70;66.90;;;;;;5081589;28;20205;-93
2021/09/13 11:30:23;;;;;;;11.13;8.13;;;20.70;66.00;;;;;;5080503;28;20198;-90
2021/09/13 11:33:09;;;;;;;10.03;7.93;;;20.80;64.40;;;;;;5082426;28;20217;-91
2021/09/13 11:35:46;;;;;;;8.97;7.13;;;20.80;64.50;;;;;;5084939;28;20172;-89
2021/09/13 11:38:28;;;;;;;8.30;6.37;;;20.90;64.20;;;;;;5086516;28;20655;-93
2021/09/13 11:41:11;;;;;;;10.80;7.70;;;20.90;60.30;;;;;;5086850;28;20181;-90
2021/09/13 11:44:03;;;;;;;9.13;7.47;;;20.80;59.90;;;;;;5090789;28;20181;-92
2021/09/13 11:46:57;;;;;;;9.80;7.50;;;20.60;63.70;;;;;;5085751;28;20218;-94
2021/09/13 11:50:02;;;;;;;12.13;7.80;;;20.60;62.10;;;;;;5083581;28;20179;-91
2021/09/13 11:52:37;;;;;;;10.67;8.80;;;20.70;64.20;;;;;;5070623;28;20202;-90
2021/09/13 11:55:17;;;;;;;10.37;8.67;;;20.80;63.70;;;;;;5082197;28;20257;-91
2021/09/13 11:58:08;;;;;;;10.90;7.70;;;21.00;62.80;;;;;;5084818;28;20183;-90
2021/09/13 12:00:38;;;;;;;9.97;7.53;;;21.10;58.00;;;;;;5087494;28;20182;-90
2021/09/13 12:03:27;;;;;;;11.00;7.13;;;21.00;58.50;;;;;;5089312;28;20264;-93
2021/09/13 12:06:01;;;;;;;19.07;7.90;;;21.10;55.20;;;;;;5086022;28;20259;-89
2021/09/13 12:08:50;;;;;;;7.73;6.10;;;20.90;55.90;;;;;;5088940;28;20199;-90
2021/09/13 12:11:22;;;;;;;9.23;6.10;;;21.00;55.30;;;;;;5089725;28;20208;-89
2021/09/13 12:13:48;;;;;;;11.70;6.37;;;21.10;54.80;;;;;;5094839;28;20178;-86
2021/09/13 12:16:14;;;;;;;10.17;6.27;;;21.20;58.10;;;;;;5094137;28;20186;-87
2021/09/13 12:18:43;;;;;;;10.07;7.03;;;21.20;55.80;;;;;;5094058;28;20183;-88
2021/09/13 12:21:30;;;;;;;7.40;6.07;;;21.10;52.30;;;;;;5093123;28;20162;-88
2021/09/13 12:24:25;;;;;;;9.10;6.43;;;21.00;56.70;;;;;;5093862;28;20239;-88
2021/09/13 12:27:30;;;;;;;9.87;6.30;;;21.00;57.90;;;;;;5084417;28;20220;-88
2021/09/13 12:30:52;;;;;;;;;;;;;;;;;;;;;
2021/09/13 12:33:33;;;;;;;7.87;5.60;;;21.30;52.70;;;;;;5088947;28;20249;-91
2021/09/13 12:36:38;;;;;;;10.13;7.00;;;21.30;53.90;;;;;;5085094;28;20269;-89
2021/09/13 12:39:43;;;;;;;9.57;6.03;;;21.40;53.50;;;;;;5086386;28;20190;-92
2021/09/13 12:43:02;;;;;;;8.53;5.63;;;21.40;53.40;;;;;;5088574;28;20269;-90
2021/09/13 12:45:46;;;;;;;8.03;6.10;;;21.60;48.60;;;;;;5087462;28;20228;-90
2021/09/13 12:48:32;;;;;;;20.07;6.67;;;21.90;48.40;;;;;;5088655;28;20191;-87
2021/09/13 12:51:05;;;;;;;8.13;6.23;;;21.90;45.90;;;;;;5086197;28;20169;-92
2021/09/13 12:53:54;;;;;;;9.40;5.90;;;21.90;43.70;;;;;;5086408;28;20199;-87
2021/09/13 12:56:29;;;;;;;8.33;6.10;;;21.90;43.40;;;;;;5084282;28;20258;-87
2021/09/13 12:59:31;;;;;;;8.57;5.43;;;21.70;46.00;;;;;;5082813;28;20164;-90
2021/09/13 13:02:57;;;;;;;7.77;6.00;;;21.70;47.30;;;;;;5060179;28;20187;-91
2021/09/13 13:05:48;;;;;;;9.43;6.80;;;21.70;47.10;;;;;;5042589;28;20223;-92
2021/09/13 13:08:37;;;;;;;10.03;6.10;;;21.90;45.80;;;;;;5032126;28;20629;-89
2021/09/13 13:11:04;;;;;;;8.10;5.97;;;22.10;43.80;;;;;;5050392;28;20251;-92
2021/09/13 13:13:33;;;;;;;8.00;6.10;;;22.10;40.20;;;;;;5032373;28;20235;-90
2021/09/13 13:16:23;;;;;;;8.30;5.63;;;22.00;41.50;;;;;;5048242;28;20177;-92
2021/09/13 13:19:19;;;;;;;8.67;5.90;;;21.90;33.80;;;;;;5049656;28;20275;-90
2021/09/13 13:21:51;;;;;;;7.33;5.40;;;22.20;23.70;;;;;;5081870;28;20180;-87
2021/09/13 13:24:23;;;;;;;7.50;6.50;;;22.50;16.60;;;;;;5082743;28;20173;-87
2021/09/13 13:29:50;;;;;;;10.57;7.93;;;22.50;13.90;;;;;;5083614;28;20180;-90
2021/09/13 13:32:23;;;;;;;8.50;7.40;;;22.40;4.90;;;;;;5081262;28;20195;-89
2021/09/13 13:35:25;;;;;;;11.57;6.63;;;22.60;1.50;;;;;;5083789;28;20246;-91
2021/09/13 13:38:12;;;;;;;8.33;6.80;;;23.10;2.80;;;;;;5069207;28;20250;-91
2021/09/13 13:40:49;;;;;;;8.47;6.23;;;23.20;1.00;;;;;;5091169;28;20182;-86
2021/09/13 13:43:30;;;;;;;9.03;6.33;;;23.00;1.00;;;;;;5094560;28;20198;-86
2021/09/13 13:46:00;;;;;;;7.37;6.50;;;23.30;1.00;;;;;;5096210;28;20231;-89
2021/09/13 13:48:29;;;;;;;7.97;6.07;;;23.20;1.00;;;;;;5096861;28;20196;-88
2021/09/13 13:51:03;;;;;;;8.87;6.70;;;23.20;1.00;;;;;;5096178;28;20167;-89
2021/09/13 13:53:46;;;;;;;9.60;7.80;;;22.90;1.00;;;;;;5081506;28;20207;-92
2021/09/13 13:56:23;;;;;;;10.73;6.87;;;22.80;1.00;;;;;;5061743;28;20169;-90
2021/09/13 13:59:03;;;;;;;8.20;6.53;;;22.70;1.00;;;;;;5088259;28;20190;-90
2021/09/13 14:01:40;;;;;;;8.97;5.60;;;22.40;5.00;;;;;;5093339;28;20188;-86
2021/09/13 14:04:09;;;;;;;8.67;6.53;;;22.30;9.10;;;;;;5072495;28;20231;-84
2021/09/13 14:06:38;;;;;;;8.73;7.37;;;22.30;13.20;;;;;;5074332;28;20204;-90
2021/09/13 14:09:12;;;;;;;11.23;8.80;;;22.30;7.20;;;;;;5079127;28;20184;-88
2021/09/13 14:11:49;;;;;;;12.33;9.07;;;22.30;1.00;;;;;;5079373;28;20174;-89
2021/09/13 14:14:27;;;;;;;10.90;8.60;;;22.20;1.00;;;;;;5068495;28;20180;-88
2021/09/13 14:17:16;;;;;;;10.87;8.20;;;22.20;1.00;;;;;;5071865;28;20184;-89
2021/09/13 14:19:58;;;;;;;10.53;7.23;;;22.40;1.00;;;;;;5080423;28;20177;-88
2021/09/13 14:22:30;;;;;;;11.33;7.37;;;22.50;1.00;;;;;;5079079;28;20190;-86
2021/09/13 14:24:58;;;;;;;9.90;7.30;;;22.60;1.00;;;;;;5080708;28;20174;-85
2021/09/13 14:27:52;;;;;;;10.57;7.57;;;22.80;1.00;;;;;;5078514;28;20217;-85